createdAt,value
2017-07-18T00:00:02.024Z,1018.71
2017-07-18T00:00:42.919Z,1018.71
2017-07-18T00:01:23.818Z,1018.73
2017-07-18T00:02:04.698Z,1018.72
2017-07-18T00:02:45.599Z,1018.72
2017-07-18T00:03:26.489Z,1018.71
2017-07-18T00:04:07.381Z,1018.69
2017-07-18T00:04:48.279Z,1018.68
2017-07-18T00:05:29.164Z,1018.69
2017-07-18T00:06:10.061Z,1018.73
2017-07-18T00:06:50.958Z,1018.71
2017-07-18T00:07:31.845Z,1018.74
2017-07-18T00:08:12.739Z,1018.7
2017-07-18T00:08:53.634Z,1018.72
2017-07-18T00:09:34.531Z,1018.71
2017-07-18T00:10:15.421Z,1018.71
2017-07-18T00:10:56.313Z,1018.71
2017-07-18T00:11:37.199Z,1018.73
2017-07-18T00:12:18.105Z,1018.71
2017-07-18T00:12:58.981Z,1018.74
2017-07-18T00:13:39.871Z,1018.72
2017-07-18T00:14:20.769Z,1018.69
2017-07-18T00:15:01.656Z,1018.7
2017-07-18T00:15:42.550Z,1018.69
2017-07-18T00:16:23.458Z,1018.71
2017-07-18T00:17:04.338Z,1018.71
2017-07-18T00:17:45.226Z,1018.76
2017-07-18T00:18:26.130Z,1018.74
2017-07-18T00:19:07.011Z,1018.74
2017-07-18T00:19:47.903Z,1018.78
2017-07-18T00:20:28.789Z,1018.76
2017-07-18T00:21:09.702Z,1018.78
2017-07-18T00:21:50.605Z,1018.77
2017-07-18T00:22:31.500Z,1018.77
2017-07-18T00:23:12.388Z,1018.8
2017-07-18T00:23:53.284Z,1018.79
2017-07-18T00:24:34.179Z,1018.77
2017-07-18T00:25:15.070Z,1018.8
2017-07-18T00:25:55.995Z,1018.78
2017-07-18T00:26:36.883Z,1018.76
2017-07-18T00:27:17.770Z,1018.8
2017-07-18T00:27:58.657Z,1018.78
2017-07-18T00:28:39.546Z,1018.78
2017-07-18T00:29:20.451Z,1018.8
2017-07-18T00:30:01.333Z,1018.78
2017-07-18T00:30:42.225Z,1018.77
2017-07-18T00:31:23.121Z,1018.76
2017-07-18T00:32:04.005Z,1018.81
2017-07-18T00:32:44.897Z,1018.79
2017-07-18T00:33:25.777Z,1018.79
2017-07-18T00:34:06.667Z,1018.82
2017-07-18T00:34:47.554Z,1018.79
2017-07-18T00:35:28.473Z,1018.82
2017-07-18T00:36:09.362Z,1018.8
2017-07-18T00:36:50.254Z,1018.8
2017-07-18T00:37:31.155Z,1018.8
2017-07-18T00:38:12.049Z,1018.78
2017-07-18T00:38:52.933Z,1018.77
2017-07-18T00:39:33.814Z,1018.78
2017-07-18T00:40:14.702Z,1018.8
2017-07-18T00:40:55.595Z,1018.78
2017-07-18T00:41:36.491Z,1018.78
2017-07-18T00:42:17.390Z,1018.75
2017-07-18T00:42:58.283Z,1018.77
2017-07-18T00:43:39.171Z,1018.73
2017-07-18T00:44:20.063Z,1018.77
2017-07-18T00:45:00.954Z,1018.72
2017-07-18T00:45:41.849Z,1018.72
2017-07-18T00:46:22.742Z,1018.71
2017-07-18T00:47:03.623Z,1018.7
2017-07-18T00:47:44.522Z,1018.76
2017-07-18T00:48:25.407Z,1018.73
2017-07-18T00:49:06.296Z,1018.75
2017-07-18T00:49:47.187Z,1018.72
2017-07-18T00:50:28.069Z,1018.73
2017-07-18T00:51:08.972Z,1018.72
2017-07-18T00:51:49.871Z,1018.72
2017-07-18T00:52:30.764Z,1018.71
2017-07-18T00:53:11.653Z,1018.73
2017-07-18T00:53:52.546Z,1018.73
2017-07-18T00:54:33.430Z,1018.74
2017-07-18T00:55:14.321Z,1018.73
2017-07-18T00:55:55.227Z,1018.75
2017-07-18T00:56:36.113Z,1018.72
2017-07-18T00:57:16.996Z,1018.73
2017-07-18T00:57:57.898Z,1018.72
2017-07-18T00:58:38.788Z,1018.77
2017-07-18T00:59:19.677Z,1018.71
2017-07-18T01:00:00.582Z,1018.73
2017-07-18T01:00:41.466Z,1018.72
2017-07-18T01:01:22.355Z,1018.71
2017-07-18T01:02:03.254Z,1018.72
2017-07-18T01:02:44.155Z,1018.69
2017-07-18T01:03:25.042Z,1018.7
2017-07-18T01:04:05.929Z,1018.72
2017-07-18T01:04:46.817Z,1018.68
2017-07-18T01:05:27.717Z,1018.69
2017-07-18T01:06:08.607Z,1018.71
2017-07-18T01:06:49.497Z,1018.69
2017-07-18T01:07:30.391Z,1018.67
2017-07-18T01:08:11.285Z,1018.69
2017-07-18T01:08:52.164Z,1018.68
2017-07-18T01:09:33.054Z,1018.67
2017-07-18T01:10:13.948Z,1018.66
2017-07-18T01:10:54.834Z,1018.7
2017-07-18T01:11:35.736Z,1018.71
2017-07-18T01:12:16.623Z,1018.67
2017-07-18T01:12:57.517Z,1018.68
2017-07-18T01:13:38.407Z,1018.71
2017-07-18T01:14:19.324Z,1018.7
2017-07-18T01:15:00.191Z,1018.73
2017-07-18T01:15:41.082Z,1018.7
2017-07-18T01:16:21.969Z,1018.75
2017-07-18T01:17:02.871Z,1018.74
2017-07-18T01:17:43.740Z,1018.73
2017-07-18T01:18:24.641Z,1018.73
2017-07-18T01:19:05.517Z,1018.73
2017-07-18T01:19:46.406Z,1018.72
2017-07-18T01:20:27.291Z,1018.74
2017-07-18T01:21:08.188Z,1018.73
2017-07-18T01:21:49.086Z,1018.74
2017-07-18T01:22:29.981Z,1018.74
2017-07-18T01:23:10.886Z,1018.75
2017-07-18T01:23:51.762Z,1018.76
2017-07-18T01:24:32.658Z,1018.73
2017-07-18T01:25:13.539Z,1018.76
2017-07-18T01:25:54.422Z,1018.73
2017-07-18T01:26:35.314Z,1018.75
2017-07-18T01:27:16.218Z,1018.74
2017-07-18T01:27:57.105Z,1018.76
2017-07-18T01:28:37.982Z,1018.75
2017-07-18T01:29:18.874Z,1018.77
2017-07-18T01:29:59.765Z,1018.74
2017-07-18T01:30:40.658Z,1018.71
2017-07-18T01:31:21.560Z,1018.74
2017-07-18T01:32:02.455Z,1018.72
2017-07-18T01:32:43.357Z,1018.69
2017-07-18T01:33:24.252Z,1018.68
2017-07-18T01:34:05.149Z,1018.69
2017-07-18T01:34:46.068Z,1018.73
2017-07-18T01:35:26.968Z,1018.7
2017-07-18T01:36:07.863Z,1018.71
2017-07-18T01:36:48.759Z,1018.73
2017-07-18T01:37:29.651Z,1018.7
2017-07-18T01:38:10.556Z,1018.67
2017-07-18T01:38:51.443Z,1018.72
2017-07-18T01:39:32.335Z,1018.68
2017-07-18T01:40:13.232Z,1018.72
2017-07-18T01:40:54.117Z,1018.7
2017-07-18T01:41:35.026Z,1018.71
2017-07-18T01:42:15.914Z,1018.67
2017-07-18T01:42:56.800Z,1018.7
2017-07-18T01:43:37.698Z,1018.73
2017-07-18T01:44:18.592Z,1018.72
2017-07-18T01:44:59.470Z,1018.73
2017-07-18T01:45:40.372Z,1018.74
2017-07-18T01:46:21.266Z,1018.74
2017-07-18T01:47:02.155Z,1018.71
2017-07-18T01:47:43.046Z,1018.73
2017-07-18T01:48:23.939Z,1018.7
2017-07-18T01:49:04.823Z,1018.71
2017-07-18T01:49:45.712Z,1018.71
2017-07-18T01:50:26.614Z,1018.68
2017-07-18T01:51:07.493Z,1018.74
2017-07-18T01:51:48.371Z,1018.7
2017-07-18T01:52:29.268Z,1018.73
2017-07-18T01:53:10.158Z,1018.73
2017-07-18T01:53:51.047Z,1018.75
2017-07-18T01:54:31.935Z,1018.74
2017-07-18T01:55:12.845Z,1018.73
2017-07-18T01:55:53.724Z,1018.76
2017-07-18T01:56:34.603Z,1018.77
2017-07-18T01:57:15.493Z,1018.73
2017-07-18T01:57:56.384Z,1018.75
2017-07-18T01:58:37.274Z,1018.75
2017-07-18T01:59:18.176Z,1018.78
2017-07-18T01:59:59.058Z,1018.76
2017-07-18T02:00:39.936Z,1018.75
2017-07-18T02:01:20.831Z,1018.75
2017-07-18T02:02:01.723Z,1018.77
2017-07-18T02:02:42.607Z,1018.77
2017-07-18T02:03:23.504Z,1018.76
2017-07-18T02:04:04.399Z,1018.76
2017-07-18T02:04:45.281Z,1018.79
2017-07-18T02:05:26.184Z,1018.75
2017-07-18T02:06:07.065Z,1018.77
2017-07-18T02:06:47.953Z,1018.75
2017-07-18T02:07:28.843Z,1018.77
2017-07-18T02:08:09.730Z,1018.79
2017-07-18T02:08:50.614Z,1018.79
2017-07-18T02:09:31.493Z,1018.77
2017-07-18T02:10:12.378Z,1018.8
2017-07-18T02:10:53.274Z,1018.77
2017-07-18T02:11:34.149Z,1018.75
2017-07-18T02:12:15.024Z,1018.75
2017-07-18T02:12:55.916Z,1018.76
2017-07-18T02:13:36.814Z,1018.73
2017-07-18T02:14:17.686Z,1018.74
2017-07-18T02:14:58.583Z,1018.72
2017-07-18T02:15:39.470Z,1018.76
2017-07-18T02:16:20.366Z,1018.76
2017-07-18T02:17:01.244Z,1018.75
2017-07-18T02:17:42.139Z,1018.78
2017-07-18T02:18:23.027Z,1018.73
2017-07-18T02:19:03.914Z,1018.75
2017-07-18T02:19:44.806Z,1018.76
2017-07-18T02:20:25.696Z,1018.73
2017-07-18T02:21:06.579Z,1018.72
2017-07-18T02:21:47.473Z,1018.75
2017-07-18T02:22:28.357Z,1018.73
2017-07-18T02:23:09.264Z,1018.71
2017-07-18T02:23:50.124Z,1018.7
2017-07-18T02:24:31.016Z,1018.74
2017-07-18T02:25:11.907Z,1018.75
2017-07-18T02:25:52.800Z,1018.75
2017-07-18T02:26:33.691Z,1018.73
2017-07-18T02:27:14.586Z,1018.73
2017-07-18T02:27:55.468Z,1018.73
2017-07-18T02:28:36.356Z,1018.76
2017-07-18T02:29:17.252Z,1018.74
2017-07-18T02:29:58.157Z,1018.7
2017-07-18T02:30:39.037Z,1018.74
2017-07-18T02:31:19.927Z,1018.71
2017-07-18T02:32:00.804Z,1018.74
2017-07-18T02:32:41.694Z,1018.69
2017-07-18T02:33:22.599Z,1018.73
2017-07-18T02:34:03.496Z,1018.7
2017-07-18T02:34:44.378Z,1018.73
2017-07-18T02:35:25.270Z,1018.75
2017-07-18T02:36:06.159Z,1018.73
2017-07-18T02:36:47.058Z,1018.76
2017-07-18T02:37:27.954Z,1018.77
2017-07-18T02:38:08.842Z,1018.76
2017-07-18T02:38:49.739Z,1018.76
2017-07-18T02:39:30.632Z,1018.75
2017-07-18T02:40:11.517Z,1018.76
2017-07-18T02:40:52.420Z,1018.79
2017-07-18T02:41:33.312Z,1018.77
2017-07-18T02:42:14.201Z,1018.79
2017-07-18T02:42:55.091Z,1018.77
2017-07-18T02:43:35.977Z,1018.77
2017-07-18T02:44:16.861Z,1018.77
2017-07-18T02:44:57.752Z,1018.76
2017-07-18T02:45:38.637Z,1018.76
2017-07-18T02:46:19.536Z,1018.75
2017-07-18T02:47:00.429Z,1018.78
2017-07-18T02:47:41.317Z,1018.75
2017-07-18T02:48:22.197Z,1018.77
2017-07-18T02:49:03.088Z,1018.76
2017-07-18T02:49:43.974Z,1018.75
2017-07-18T02:50:24.868Z,1018.77
2017-07-18T02:51:05.747Z,1018.78
2017-07-18T02:51:46.631Z,1018.77
2017-07-18T02:52:27.524Z,1018.79
2017-07-18T02:53:08.401Z,1018.77
2017-07-18T02:53:49.300Z,1018.79
2017-07-18T02:54:30.186Z,1018.79
2017-07-18T02:55:11.063Z,1018.82
2017-07-18T02:55:51.943Z,1018.81
2017-07-18T02:56:32.820Z,1018.82
2017-07-18T02:57:13.718Z,1018.83
2017-07-18T02:57:54.598Z,1018.78
2017-07-18T02:58:35.493Z,1018.81
2017-07-18T02:59:16.365Z,1018.81
2017-07-18T02:59:57.256Z,1018.81
2017-07-18T03:00:38.168Z,1018.83
2017-07-18T03:01:19.061Z,1018.83
2017-07-18T03:01:59.948Z,1018.85
2017-07-18T03:02:40.824Z,1018.88
2017-07-18T03:03:21.701Z,1018.85
2017-07-18T03:04:02.590Z,1018.86
2017-07-18T03:04:43.483Z,1018.87
2017-07-18T03:05:24.374Z,1018.85
2017-07-18T03:06:05.251Z,1018.86
2017-07-18T03:06:46.143Z,1018.89
2017-07-18T03:07:27.030Z,1018.87
2017-07-18T03:08:07.925Z,1018.86
2017-07-18T03:08:48.808Z,1018.85
2017-07-18T03:09:29.696Z,1018.84
2017-07-18T03:10:10.585Z,1018.9
2017-07-18T03:10:51.462Z,1018.86
2017-07-18T03:11:32.354Z,1018.9
2017-07-18T03:12:13.237Z,1018.88
2017-07-18T03:12:54.126Z,1018.91
2017-07-18T03:13:35.011Z,1018.91
2017-07-18T03:14:15.913Z,1018.9
2017-07-18T03:14:56.809Z,1018.91
2017-07-18T03:15:37.671Z,1018.93
2017-07-18T03:16:18.558Z,1018.89
2017-07-18T03:16:59.495Z,1018.92
2017-07-18T03:17:40.341Z,1018.92
2017-07-18T03:18:21.221Z,1018.96
2017-07-18T03:19:02.122Z,1018.93
2017-07-18T03:19:43.006Z,1018.93
2017-07-18T03:20:23.878Z,1018.95
2017-07-18T03:21:04.772Z,1018.94
2017-07-18T03:21:45.665Z,1018.96
2017-07-18T03:22:26.552Z,1018.95
2017-07-18T03:23:07.445Z,1019
2017-07-18T03:23:48.337Z,1018.95
2017-07-18T03:24:29.230Z,1018.98
2017-07-18T03:25:10.122Z,1018.95
2017-07-18T03:25:51.021Z,1018.95
2017-07-18T03:26:31.904Z,1018.96
2017-07-18T03:27:12.781Z,1019.01
2017-07-18T03:27:53.680Z,1018.99
2017-07-18T03:28:34.573Z,1019.01
2017-07-18T03:29:15.462Z,1018.97
2017-07-18T03:29:56.360Z,1018.96
2017-07-18T03:30:37.247Z,1018.98
2017-07-18T03:31:18.118Z,1019.01
2017-07-18T03:31:59.012Z,1019
2017-07-18T03:32:39.901Z,1018.95
2017-07-18T03:33:20.803Z,1018.99
2017-07-18T03:34:01.677Z,1019.02
2017-07-18T03:34:42.570Z,1019.02
2017-07-18T03:35:23.465Z,1019.07
2017-07-18T03:36:04.357Z,1019.07
2017-07-18T03:36:45.251Z,1019.08
2017-07-18T03:37:26.147Z,1019.09
2017-07-18T03:38:07.039Z,1019.1
2017-07-18T03:38:47.935Z,1019.09
2017-07-18T03:39:28.818Z,1019.08
2017-07-18T03:40:09.693Z,1019.09
2017-07-18T03:40:50.581Z,1019.08
2017-07-18T03:41:31.469Z,1019.09
2017-07-18T03:42:12.351Z,1019.12
2017-07-18T03:42:53.245Z,1019.11
2017-07-18T03:43:34.128Z,1019.1
2017-07-18T03:44:15.016Z,1019.11
2017-07-18T03:44:55.900Z,1019.1
2017-07-18T03:45:36.787Z,1019.09
2017-07-18T03:46:17.717Z,1019.13
2017-07-18T03:46:58.587Z,1019.12
2017-07-18T03:49:07.724Z,1019.14
2017-07-18T03:49:48.611Z,1019.18
2017-07-18T03:50:29.497Z,1019.22
2017-07-18T03:51:10.401Z,1019.21
2017-07-18T03:51:51.290Z,1019.19
2017-07-18T03:52:32.190Z,1019.19
2017-07-18T03:53:13.068Z,1019.21
2017-07-18T03:53:53.962Z,1019.19
2017-07-18T03:54:34.848Z,1019.2
2017-07-18T03:55:15.747Z,1019.22
2017-07-18T03:55:56.625Z,1019.21
2017-07-18T03:56:37.515Z,1019.22
2017-07-18T03:57:18.398Z,1019.21
2017-07-18T03:57:59.291Z,1019.22
2017-07-18T03:58:40.181Z,1019.23
2017-07-18T03:59:21.065Z,1019.21
2017-07-18T04:00:03.642Z,1019.27
2017-07-18T04:00:44.524Z,1019.27
2017-07-18T04:01:25.430Z,1019.25
2017-07-18T04:02:06.347Z,1019.23
2017-07-18T04:02:47.256Z,1019.2
2017-07-18T04:03:28.132Z,1019.21
2017-07-18T04:04:09.013Z,1019.21
2017-07-18T04:04:49.892Z,1019.2
2017-07-18T04:05:30.788Z,1019.19
2017-07-18T04:06:11.677Z,1019.2
2017-07-18T04:06:52.575Z,1019.16
2017-07-18T04:07:33.461Z,1019.16
2017-07-18T04:08:14.414Z,1019.14
2017-07-18T04:08:55.299Z,1019.17
2017-07-18T04:09:36.181Z,1019.14
2017-07-18T04:10:17.072Z,1019.15
2017-07-18T04:10:57.957Z,1019.16
2017-07-18T04:11:38.846Z,1019.15
2017-07-18T04:12:19.746Z,1019.18
2017-07-18T04:13:00.631Z,1019.18
2017-07-18T04:13:41.515Z,1019.15
2017-07-18T04:14:22.411Z,1019.19
2017-07-18T04:15:03.296Z,1019.2
2017-07-18T04:15:44.177Z,1019.18
2017-07-18T04:16:25.050Z,1019.19
2017-07-18T04:17:05.950Z,1019.21
2017-07-18T04:17:46.843Z,1019.18
2017-07-18T04:18:27.725Z,1019.22
2017-07-18T04:19:08.618Z,1019.22
2017-07-18T04:19:49.513Z,1019.24
2017-07-18T04:20:30.407Z,1019.21
2017-07-18T04:21:11.290Z,1019.23
2017-07-18T04:21:52.179Z,1019.24
2017-07-18T04:22:33.073Z,1019.28
2017-07-18T04:23:13.987Z,1019.27
2017-07-18T04:23:54.870Z,1019.27
2017-07-18T04:24:35.757Z,1019.25
2017-07-18T04:25:16.646Z,1019.27
2017-07-18T04:25:57.543Z,1019.25
2017-07-18T04:26:38.437Z,1019.28
2017-07-18T04:27:19.333Z,1019.27
2017-07-18T04:28:00.224Z,1019.26
2017-07-18T04:28:41.109Z,1019.28
2017-07-18T04:29:21.993Z,1019.29
2017-07-18T04:30:02.890Z,1019.26
2017-07-18T04:30:43.772Z,1019.27
2017-07-18T04:31:24.653Z,1019.3
2017-07-18T04:32:05.546Z,1019.25
2017-07-18T04:32:46.422Z,1019.25
2017-07-18T04:33:27.312Z,1019.28
2017-07-18T04:34:08.757Z,1019.27
2017-07-18T04:34:49.644Z,1019.28
2017-07-18T04:35:32.047Z,1019.3
2017-07-18T04:36:12.932Z,1019.32
2017-07-18T04:36:53.822Z,1019.28
2017-07-18T04:37:34.713Z,1019.3
2017-07-18T04:38:15.613Z,1019.29
2017-07-18T04:38:56.512Z,1019.31
2017-07-18T04:39:37.384Z,1019.31
2017-07-18T04:40:18.280Z,1019.33
2017-07-18T04:40:59.183Z,1019.3
2017-07-18T04:41:40.068Z,1019.31
2017-07-18T04:42:24.561Z,1019.27
2017-07-18T04:43:05.459Z,1019.3
2017-07-18T04:43:46.347Z,1019.3
2017-07-18T04:44:27.235Z,1019.32
2017-07-18T04:45:09.780Z,1019.28
2017-07-18T04:45:50.673Z,1019.31
2017-07-18T04:46:31.572Z,1019.33
2017-07-18T04:47:14.053Z,1019.32
2017-07-18T04:47:54.945Z,1019.33
2017-07-18T04:48:35.828Z,1019.33
2017-07-18T04:49:22.057Z,1019.33
2017-07-18T04:50:02.962Z,1019.34
2017-07-18T04:50:47.055Z,1019.39
2017-07-18T04:51:31.427Z,1019.36
2017-07-18T04:52:14.057Z,1019.41
2017-07-18T04:52:58.659Z,1019.37
2017-07-18T04:53:41.446Z,1019.37
2017-07-18T04:54:22.331Z,1019.37
2017-07-18T04:55:03.194Z,1019.38
2017-07-18T04:55:45.796Z,1019.42
2017-07-18T04:56:30.558Z,1019.39
2017-07-18T04:57:13.288Z,1019.39
2017-07-18T04:57:54.184Z,1019.38
2017-07-18T04:58:35.073Z,1019.42
2017-07-18T04:59:19.258Z,1019.42
2017-07-18T05:00:00.128Z,1019.41
2017-07-18T05:00:42.916Z,1019.41
2017-07-18T05:01:25.660Z,1019.4
2017-07-18T05:02:09.168Z,1019.39
2017-07-18T05:02:50.047Z,1019.37
2017-07-18T05:03:30.944Z,1019.38
2017-07-18T05:04:11.891Z,1019.36
2017-07-18T05:04:52.789Z,1019.37
2017-07-18T05:05:33.675Z,1019.37
2017-07-18T05:06:14.562Z,1019.37
2017-07-18T05:06:55.451Z,1019.38
2017-07-18T05:07:36.339Z,1019.41
2017-07-18T05:08:17.221Z,1019.37
2017-07-18T05:08:58.112Z,1019.35
2017-07-18T05:09:38.999Z,1019.34
2017-07-18T05:10:19.881Z,1019.38
2017-07-18T05:11:00.775Z,1019.37
2017-07-18T05:11:41.665Z,1019.39
2017-07-18T05:12:22.551Z,1019.39
2017-07-18T05:13:03.432Z,1019.41
2017-07-18T05:13:44.322Z,1019.43
2017-07-18T05:14:25.214Z,1019.4
2017-07-18T05:15:06.094Z,1019.41
2017-07-18T05:15:47.005Z,1019.44
2017-07-18T05:16:27.900Z,1019.39
2017-07-18T05:17:08.789Z,1019.42
2017-07-18T05:17:49.684Z,1019.42
2017-07-18T05:18:30.567Z,1019.45
2017-07-18T05:19:11.446Z,1019.42
2017-07-18T05:19:52.331Z,1019.42
2017-07-18T05:20:33.237Z,1019.44
2017-07-18T05:21:14.120Z,1019.43
2017-07-18T05:21:55.029Z,1019.42
2017-07-18T05:22:35.919Z,1019.43
2017-07-18T05:23:16.799Z,1019.43
2017-07-18T05:23:57.700Z,1019.44
2017-07-18T05:24:38.605Z,1019.42
2017-07-18T05:25:19.504Z,1019.42
2017-07-18T05:26:00.386Z,1019.45
2017-07-18T05:26:41.277Z,1019.48
2017-07-18T05:27:22.159Z,1019.49
2017-07-18T05:29:16.843Z,1019.42
2017-07-18T05:29:57.678Z,1019.43
2017-07-18T05:30:38.569Z,1019.44
2017-07-18T05:31:19.462Z,1019.45
2017-07-18T05:32:00.359Z,1019.45
2017-07-18T05:32:41.235Z,1019.45
2017-07-18T05:33:22.128Z,1019.44
2017-07-18T05:34:03.022Z,1019.47
2017-07-18T05:34:43.927Z,1019.46
2017-07-18T05:35:24.799Z,1019.5
2017-07-18T05:36:05.710Z,1019.49
2017-07-18T05:36:46.576Z,1019.47
2017-07-18T05:37:27.463Z,1019.45
2017-07-18T05:38:08.387Z,1019.47
2017-07-18T05:38:49.255Z,1019.49
2017-07-18T05:39:30.156Z,1019.47
2017-07-18T05:40:11.046Z,1019.52
2017-07-18T05:40:51.931Z,1019.49
2017-07-18T05:41:32.825Z,1019.49
2017-07-18T05:42:13.721Z,1019.46
2017-07-18T05:42:54.609Z,1019.48
2017-07-18T05:43:35.507Z,1019.46
2017-07-18T05:44:16.411Z,1019.48
2017-07-18T05:44:57.304Z,1019.47
2017-07-18T05:45:38.208Z,1019.5
2017-07-18T05:46:19.132Z,1019.48
2017-07-18T05:47:00.013Z,1019.55
2017-07-18T05:47:40.894Z,1019.51
2017-07-18T05:48:21.853Z,1019.49
2017-07-18T05:49:02.744Z,1019.53
2017-07-18T05:49:43.623Z,1019.5
2017-07-18T05:50:24.515Z,1019.51
2017-07-18T05:51:05.397Z,1019.44
2017-07-18T05:51:46.287Z,1019.44
2017-07-18T05:52:27.206Z,1019.46
2017-07-18T05:53:08.088Z,1019.48
2017-07-18T05:53:48.980Z,1019.48
2017-07-18T05:54:29.876Z,1019.45
2017-07-18T05:55:10.750Z,1019.47
2017-07-18T05:55:51.649Z,1019.45
2017-07-18T05:56:32.539Z,1019.44
2017-07-18T05:57:13.431Z,1019.48
2017-07-18T05:57:54.323Z,1019.44
2017-07-18T05:58:35.212Z,1019.45
2017-07-18T05:59:16.101Z,1019.43
2017-07-18T05:59:56.986Z,1019.43
2017-07-18T06:00:37.879Z,1019.44
2017-07-18T06:01:18.769Z,1019.45
2017-07-18T06:01:59.661Z,1019.47
2017-07-18T06:02:40.548Z,1019.47
2017-07-18T06:03:21.441Z,1019.4
2017-07-18T06:04:02.344Z,1019.44
2017-07-18T06:04:43.243Z,1019.39
2017-07-18T06:05:24.134Z,1019.39
2017-07-18T06:06:05.031Z,1019.4
2017-07-18T06:06:45.939Z,1019.42
2017-07-18T06:07:26.835Z,1019.41
2017-07-18T06:08:07.732Z,1019.43
2017-07-18T06:08:48.646Z,1019.48
2017-07-18T06:09:29.505Z,1019.48
2017-07-18T06:10:10.396Z,1019.49
2017-07-18T06:10:51.298Z,1019.48
2017-07-18T06:11:32.187Z,1019.49
2017-07-18T06:12:13.086Z,1019.48
2017-07-18T06:12:53.971Z,1019.5
2017-07-18T06:13:34.904Z,1019.49
2017-07-18T06:14:15.792Z,1019.52
2017-07-18T06:14:56.669Z,1019.51
2017-07-18T06:15:37.569Z,1019.5
2017-07-18T06:16:18.458Z,1019.53
2017-07-18T06:16:59.347Z,1019.48
2017-07-18T06:17:40.246Z,1019.5
2017-07-18T06:18:21.137Z,1019.45
2017-07-18T06:19:01.996Z,1019.48
2017-07-18T06:19:42.886Z,1019.5
2017-07-18T06:20:23.784Z,1019.48
2017-07-18T06:21:04.674Z,1019.47
2017-07-18T06:21:45.558Z,1019.5
2017-07-18T06:22:26.461Z,1019.48
2017-07-18T06:23:07.343Z,1019.5
2017-07-18T06:23:48.229Z,1019.49
2017-07-18T06:24:29.138Z,1019.5
2017-07-18T06:25:10.024Z,1019.53
2017-07-18T06:25:50.933Z,1019.5
2017-07-18T06:26:31.841Z,1019.51
2017-07-18T06:27:12.739Z,1019.51
2017-07-18T06:27:53.632Z,1019.5
2017-07-18T06:28:34.522Z,1019.5
2017-07-18T06:29:15.412Z,1019.47
2017-07-18T06:29:56.308Z,1019.44
2017-07-18T06:30:37.196Z,1019.44
2017-07-18T06:31:18.095Z,1019.45
2017-07-18T06:31:58.978Z,1019.46
2017-07-18T06:32:39.869Z,1019.47
2017-07-18T06:33:20.746Z,1019.49
2017-07-18T06:34:01.661Z,1019.46
2017-07-18T06:34:42.550Z,1019.48
2017-07-18T06:35:23.433Z,1019.5
2017-07-18T06:36:04.335Z,1019.52
2017-07-18T06:36:45.226Z,1019.49
2017-07-18T06:37:26.109Z,1019.53
2017-07-18T06:38:07.008Z,1019.45
2017-07-18T06:38:47.927Z,1019.47
2017-07-18T06:39:28.839Z,1019.48
2017-07-18T06:40:09.730Z,1019.47
2017-07-18T06:40:50.625Z,1019.5
2017-07-18T06:41:31.535Z,1019.46
2017-07-18T06:42:12.430Z,1019.45
2017-07-18T06:42:53.330Z,1019.44
2017-07-18T06:43:34.222Z,1019.45
2017-07-18T06:44:15.121Z,1019.43
2017-07-18T06:44:56.034Z,1019.46
2017-07-18T06:45:36.943Z,1019.46
2017-07-18T06:47:46.017Z,1019.42
2017-07-18T06:48:26.918Z,1019.46
2017-07-18T06:49:07.825Z,1019.5
2017-07-18T06:49:48.711Z,1019.48
2017-07-18T06:50:29.619Z,1019.5
2017-07-18T06:51:10.513Z,1019.52
2017-07-18T06:51:51.406Z,1019.47
2017-07-18T06:52:32.343Z,1019.51
2017-07-18T06:53:13.297Z,1019.51
2017-07-18T06:53:54.184Z,1019.52
2017-07-18T06:54:35.121Z,1019.54
2017-07-18T06:55:16.019Z,1019.51
2017-07-18T06:55:56.925Z,1019.5
2017-07-18T06:56:37.803Z,1019.51
2017-07-18T06:57:18.719Z,1019.52
2017-07-18T06:57:59.619Z,1019.48
2017-07-18T06:58:40.539Z,1019.52
2017-07-18T06:59:21.436Z,1019.51
2017-07-18T07:00:02.342Z,1019.47
2017-07-18T07:00:43.235Z,1019.45
2017-07-18T07:01:24.133Z,1019.49
2017-07-18T07:02:05.046Z,1019.49
2017-07-18T07:02:45.942Z,1019.48
2017-07-18T07:03:26.849Z,1019.46
2017-07-18T07:04:07.744Z,1019.45
2017-07-18T07:04:48.649Z,1019.45
2017-07-18T07:05:29.564Z,1019.43
2017-07-18T07:06:10.442Z,1019.49
2017-07-18T07:06:51.351Z,1019.48
2017-07-18T07:07:32.252Z,1019.48
2017-07-18T07:08:13.171Z,1019.52
2017-07-18T07:08:54.070Z,1019.45
2017-07-18T07:09:34.961Z,1019.48
2017-07-18T07:10:15.856Z,1019.45
2017-07-18T07:10:56.769Z,1019.45
2017-07-18T07:11:37.674Z,1019.44
2017-07-18T07:12:18.562Z,1019.45
2017-07-18T07:12:59.490Z,1019.44
2017-07-18T07:13:40.378Z,1019.44
2017-07-18T07:14:21.295Z,1019.41
2017-07-18T07:15:02.188Z,1019.43
2017-07-18T07:15:43.088Z,1019.4
2017-07-18T07:16:23.990Z,1019.4
2017-07-18T07:17:04.887Z,1019.39
2017-07-18T07:17:45.796Z,1019.41
2017-07-18T07:18:26.696Z,1019.41
2017-07-18T07:19:07.631Z,1019.41
2017-07-18T07:19:48.534Z,1019.4
2017-07-18T07:20:29.438Z,1019.4
2017-07-18T07:21:10.337Z,1019.43
2017-07-18T07:21:51.244Z,1019.41
2017-07-18T07:22:32.144Z,1019.43
2017-07-18T07:23:13.085Z,1019.44
2017-07-18T07:23:53.938Z,1019.47
2017-07-18T07:24:34.841Z,1019.46
2017-07-18T07:25:15.755Z,1019.44
2017-07-18T07:25:56.647Z,1019.46
2017-07-18T07:26:37.557Z,1019.46
2017-07-18T07:27:18.469Z,1019.43
2017-07-18T07:27:59.377Z,1019.43
2017-07-18T07:28:40.296Z,1019.44
2017-07-18T07:29:21.178Z,1019.42
2017-07-18T07:30:02.085Z,1019.41
2017-07-18T07:30:42.993Z,1019.43
2017-07-18T07:31:23.901Z,1019.46
2017-07-18T07:32:04.806Z,1019.44
2017-07-18T07:32:45.707Z,1019.45
2017-07-18T07:33:26.612Z,1019.41
2017-07-18T07:34:07.525Z,1019.43
2017-07-18T07:34:48.420Z,1019.46
2017-07-18T07:35:29.323Z,1019.41
2017-07-18T07:36:10.228Z,1019.44
2017-07-18T07:36:51.139Z,1019.41
2017-07-18T07:37:32.040Z,1019.4
2017-07-18T07:38:12.958Z,1019.39
2017-07-18T07:38:53.850Z,1019.42
2017-07-18T07:39:34.758Z,1019.41
2017-07-18T07:40:15.654Z,1019.41
2017-07-18T07:40:56.553Z,1019.38
2017-07-18T07:41:37.462Z,1019.38
2017-07-18T07:42:18.389Z,1019.43
2017-07-18T07:42:59.297Z,1019.41
2017-07-18T07:43:40.203Z,1019.37
2017-07-18T07:44:21.114Z,1019.35
2017-07-18T07:45:02.021Z,1019.38
2017-07-18T07:45:42.928Z,1019.36
2017-07-18T07:46:23.845Z,1019.31
2017-07-18T07:47:04.750Z,1019.31
2017-07-18T07:47:45.638Z,1019.32
2017-07-18T07:48:26.551Z,1019.31
2017-07-18T07:49:07.448Z,1019.31
2017-07-18T07:49:48.363Z,1019.29
2017-07-18T07:50:29.265Z,1019.31
2017-07-18T07:51:10.176Z,1019.35
2017-07-18T07:51:51.074Z,1019.32
2017-07-18T07:52:32.023Z,1019.33
2017-07-18T07:53:12.884Z,1019.32
2017-07-18T07:53:53.797Z,1019.31
2017-07-18T07:54:34.709Z,1019.25
2017-07-18T07:55:15.617Z,1019.28
2017-07-18T07:55:56.521Z,1019.31
2017-07-18T07:56:37.463Z,1019.28
2017-07-18T07:57:18.349Z,1019.3
2017-07-18T07:57:59.291Z,1019.31
2017-07-18T07:58:40.174Z,1019.27
2017-07-18T07:59:21.095Z,1019.3
2017-07-18T08:00:02.006Z,1019.3
2017-07-18T08:00:42.911Z,1019.32
2017-07-18T08:01:23.820Z,1019.34
2017-07-18T08:02:04.731Z,1019.32
2017-07-18T08:02:45.634Z,1019.36
2017-07-18T08:03:26.530Z,1019.4
2017-07-18T08:04:07.432Z,1019.38
2017-07-18T08:04:48.327Z,1019.32
2017-07-18T08:05:29.968Z,1019.33
2017-07-18T08:06:11.616Z,1019.32
2017-07-18T08:06:52.579Z,1019.39
2017-07-18T08:07:33.486Z,1019.35
2017-07-18T08:08:14.403Z,1019.37
2017-07-18T08:08:55.312Z,1019.36
2017-07-18T08:09:36.214Z,1019.36
2017-07-18T08:10:17.116Z,1019.32
2017-07-18T08:10:58.054Z,1019.34
2017-07-18T08:11:38.928Z,1019.3
2017-07-18T08:12:19.835Z,1019.34
2017-07-18T08:13:00.733Z,1019.3
2017-07-18T08:13:41.649Z,1019.32
2017-07-18T08:14:22.557Z,1019.28
2017-07-18T08:15:03.470Z,1019.23
2017-07-18T08:15:44.369Z,1019.23
2017-07-18T08:16:25.293Z,1019.25
2017-07-18T08:17:06.211Z,1019.24
2017-07-18T08:17:47.138Z,1019.27
2017-07-18T08:18:28.079Z,1019.25
2017-07-18T08:19:08.992Z,1019.24
2017-07-18T08:19:49.907Z,1019.25
2017-07-18T08:20:30.844Z,1019.26
2017-07-18T08:21:11.723Z,1019.25